Time;durP1;ratioP1;P1;durP2;ratioP2;P2;SDS_P1;SDS_P2;PMS_P1;PMS_P2;Temp;Humidity;BMP_temperature;BMP_pressure;BME280_temperature;BME280_humidity;BME280_pressure;Samples;Min_cycle;Max_cycle;Signal;HPM_P1;HPM_P2
2022/12/02 00:01:04;;;;;;;;;41.00;33.00;;;;;7.58;100.00;101718.31;6229375;22;46769;-85
2022/12/02 00:03:36;;;;;;;;;34.00;31.67;;;;;7.54;100.00;101708.44;6230269;22;45268;-85
2022/12/02 00:06:02;;;;;;;;;32.67;32.33;;;;;7.49;100.00;101706.44;6255441;22;44791;-85
2022/12/02 00:08:33;;;;;;;;;31.33;27.00;;;;;7.50;100.00;101713.56;6257799;22;44780;-85
2022/12/02 00:11:07;;;;;;;;;40.33;26.00;;;;;7.48;100.00;101715.25;6257761;22;45590;-85
2022/12/02 00:13:42;;;;;;;;;45.67;36.00;;;;;7.47;100.00;101703.72;6231595;22;45320;-85
2022/12/02 00:19:29;;;;;;;;;38.33;31.67;;;;;7.45;100.00;101699.22;6257514;22;44713;-85
2022/12/02 00:21:55;;;;;;;;;54.33;41.33;;;;;7.40;100.00;101692.00;6256572;22;45236;-86
2022/12/02 00:24:27;;;;;;;;;39.67;36.67;;;;;7.39;100.00;101684.91;6257673;22;45368;-85
2022/12/02 00:26:52;;;;;;;;;46.67;38.00;;;;;7.45;100.00;101705.41;6257180;22;45354;-85
2022/12/02 00:29:19;;;;;;;;;47.67;38.67;;;;;7.40;100.00;101692.00;6230848;22;45418;-85
2022/12/02 00:31:44;;;;;;;;;41.33;39.33;;;;;7.41;100.00;101701.75;6255846;22;47372;-85
2022/12/02 00:34:10;;;;;;;;;41.67;38.00;;;;;7.38;100.00;101691.03;6228768;22;45233;-85
2022/12/02 00:36:35;;;;;;;;;39.33;37.33;;;;;7.37;100.00;101690.94;6229946;22;45277;-85
2022/12/02 00:42:23;;;;;;;;;49.67;39.33;;;;;7.33;100.00;101683.72;6258155;22;45492;-84
2022/12/02 00:47:32;;;;;;;;;48.67;41.00;;;;;7.25;100.00;101670.19;6257702;22;45377;-84
2022/12/02 00:49:58;;;;;;;;;46.67;38.33;;;;;7.31;100.00;101677.47;6258064;22;45383;-84
2022/12/02 00:52:24;;;;;;;;;49.67;42.67;;;;;7.31;100.00;101675.75;6229541;22;46828;-84
2022/12/02 00:54:55;;;;;;;;;52.33;40.67;;;;;7.28;100.00;101661.47;6230495;22;45426;-85
2022/12/02 00:57:21;;;;;;;;;52.33;43.33;;;;;7.34;100.00;101665.25;6257951;22;44741;-84
2022/12/02 00:59:46;;;;;;;;;51.00;40.33;;;;;7.30;100.00;101663.34;6255705;22;45411;-83
2022/12/02 01:02:12;;;;;;;;;36.33;31.00;;;;;7.32;100.00;101666.94;6254444;22;44892;-85
2022/12/02 01:04:38;;;;;;;;;47.67;39.33;;;;;7.29;100.00;101656.25;6229023;22;45366;-85
2022/12/02 01:07:03;;;;;;;;;47.67;40.00;;;;;7.33;100.00;101662.53;6230167;22;45308;-85
2022/12/02 01:09:32;;;;;;;;;48.00;41.67;;;;;7.39;100.00;101665.44;6258495;22;45462;-85
2022/12/02 01:12:01;;;;;;;;;45.67;37.00;;;;;7.41;100.00;101667.34;6231500;22;47263;-85
2022/12/02 01:14:27;;;;;;;;;52.00;44.33;;;;;7.39;100.00;101669.03;6231741;22;45407;-85
2022/12/02 01:16:53;;;;;;;;;53.33;41.33;;;;;7.39;100.00;101665.44;6231187;22;45397;-86
2022/12/02 01:19:18;;;;;;;;;53.67;41.00;;;;;7.37;100.00;101664.47;6232760;22;45438;-85
2022/12/02 01:21:44;;;;;;;;;58.33;43.00;;;;;7.36;100.00;101670.63;6233065;22;45449;-85
2022/12/02 01:24:09;;;;;;;;;47.67;41.33;;;;;7.29;100.00;101656.25;6259185;22;45274;-86
2022/12/02 01:26:35;;;;;;;;;47.00;41.00;;;;;7.28;100.00;101649.13;6259437;22;44860;-85
2022/12/02 01:29:00;;;;;;;;;42.67;37.33;;;;;7.28;100.00;101654.44;6233739;22;44907;-85
2022/12/02 01:31:26;;;;;;;;;43.33;39.00;;;;;7.24;100.00;101648.94;6232451;22;45158;-85
2022/12/02 01:33:51;;;;;;;;;56.67;44.33;;;;;7.27;100.00;101657.00;6232264;22;44601;-85
2022/12/02 01:36:17;;;;;;;;;55.33;44.33;;;;;7.20;100.00;101646.16;6231031;22;44724;-85
2022/12/02 01:38:42;;;;;;;;;51.33;41.00;;;;;7.22;100.00;101656.81;6256632;22;45153;-85
2022/12/02 01:41:17;;;;;;;;;50.67;42.00;;;;;7.19;100.00;101654.03;6228233;22;47374;-84
2022/12/02 01:43:45;;;;;;;;;50.67;43.00;;;;;7.18;100.00;101655.78;6274749;22;45286;-84
2022/12/02 01:46:11;;;;;;;;;52.67;43.33;;;;;7.16;100.00;101649.50;6228907;22;44828;-84
2022/12/02 01:48:40;;;;;;;;;56.00;44.33;;;;;7.26;100.00;101669.34;6229920;22;45466;-84
2022/12/02 01:51:06;;;;;;;;;45.67;40.00;;;;;7.21;100.00;101661.22;6257536;22;45257;-85
2022/12/02 01:53:33;;;;;;;;;47.00;39.00;;;;;7.21;100.00;101660.28;6227112;22;45439;-84
2022/12/02 01:56:00;;;;;;;;;36.33;33.67;;;;;7.03;100.00;101633.97;6255985;22;45377;-84
2022/12/02 01:58:30;;;;;;;;;48.00;38.00;;;;;7.25;100.00;101664.91;6260211;22;45452;-84
2022/12/02 02:01:00;;;;;;;;;48.33;41.33;;;;;7.09;100.00;101626.31;6258286;22;45561;-84
2022/12/02 02:03:26;;;;;;;;;53.33;41.33;;;;;7.33;100.00;101660.84;6259472;22;45468;-84
2022/12/02 02:05:52;;;;;;;;;41.33;35.33;;;;;7.18;100.00;101641.66;6255458;22;45746;-85
2022/12/02 02:08:18;;;;;;;;;45.00;41.00;;;;;7.31;100.00;101673.09;6256792;22;45360;-84
2022/12/02 02:10:45;;;;;;;;;53.67;43.33;;;;;7.31;100.00;101677.47;6257244;22;46020;-84
2022/12/02 02:13:13;;;;;;;;;43.67;39.00;;;;;7.22;100.00;101659.47;6229290;22;45331;-84
2022/12/02 02:15:40;;;;;;;;;49.33;39.00;;;;;6.99;100.00;101625.00;6230508;22;45177;-85
2022/12/02 02:18:09;;;;;;;;;45.33;37.00;;;;;7.17;100.00;101661.00;6229638;22;44800;-84
2022/12/02 02:21:16;;;;;;;;;46.00;37.67;;;;;7.20;100.00;101651.44;6256726;22;46810;-85
2022/12/02 02:23:41;;;;;;;;;56.00;40.67;;;;;7.04;100.00;101621.66;6229255;22;45386;-84
2022/12/02 02:26:07;;;;;;;;;55.67;44.00;;;;;7.18;100.00;101642.53;6228174;22;45449;-85
2022/12/02 02:28:35;;;;;;;;;50.67;41.00;;;;;7.25;100.00;101641.09;6257084;22;45397;-85
2022/12/02 02:31:01;;;;;;;;;52.00;38.33;;;;;7.22;100.00;101641.84;6254592;22;45031;-84
2022/12/02 02:33:34;;;;;;;;;46.67;39.67;;;;;7.11;100.00;101627.28;6229384;22;45375;-84
2022/12/02 02:36:00;;;;;;;;;43.00;36.00;;;;;7.24;100.00;101636.63;6228301;22;45376;-84
2022/12/02 02:38:28;;;;;;;;;51.00;39.67;;;;;7.16;100.00;101624.81;6257108;22;44713;-84
2022/12/02 02:41:03;;;;;;;;;50.00;40.33;;;;;7.25;100.00;101632.22;6230177;22;46875;-84
2022/12/02 02:43:32;;;;;;;;;51.00;40.00;;;;;7.11;100.00;101602.53;6230689;22;44841;-84
2022/12/02 02:46:00;;;;;;;;;33.67;33.67;;;;;7.26;100.00;101634.94;6230120;22;45118;-84
2022/12/02 02:48:26;;;;;;;;;46.33;37.33;;;;;7.29;100.00;101629.78;6258735;22;44721;-84
2022/12/02 02:50:56;;;;;;;;;50.67;41.33;;;;;7.24;100.00;101625.13;6257475;22;45358;-84
2022/12/02 02:53:24;;;;;;;;;47.33;40.33;;;;;7.29;100.00;101626.22;6228244;22;44837;-85
2022/12/02 02:55:50;;;;;;;;;54.00;40.67;;;;;7.27;100.00;101635.84;6228352;22;45241;-85
2022/12/02 02:58:19;;;;;;;;;42.33;37.00;;;;;7.18;100.00;101616.09;6228535;22;45518;-84
2022/12/02 03:00:54;;;;;;;;;51.00;40.00;;;;;7.21;100.00;101624.16;6228314;22;46769;-84
2022/12/02 03:03:26;;;;;;;;;56.00;43.33;;;;;7.21;100.00;101620.59;6257000;22;44833;-83
2022/12/02 03:05:54;;;;;;;;;51.67;40.33;;;;;7.21;100.00;101616.22;6231740;22;44768;-84
2022/12/02 03:08:22;;;;;;;;;46.67;37.67;;;;;7.21;100.00;101623.25;6259055;22;45399;-84
2022/12/02 03:10:51;;;;;;;;;52.00;41.00;;;;;7.18;100.00;101615.19;6258618;22;45306;-85
2022/12/02 03:13:17;;;;;;;;;46.33;37.33;;;;;7.19;100.00;101616.97;6231625;22;44887;-85
2022/12/02 03:15:42;;;;;;;;;48.33;39.67;;;;;7.12;100.00;101601.72;6259099;22;44810;-84
2022/12/02 03:18:11;;;;;;;;;48.67;40.67;;;;;7.21;100.00;101610.00;6281490;22;45538;-85
2022/12/02 03:20:37;;;;;;;;;45.00;39.00;;;;;7.13;100.00;101593.84;6231976;22;47074;-84
2022/12/02 03:23:03;;;;;;;;;41.00;36.33;;;;;7.20;100.00;101605.59;6260899;22;45345;-84
2022/12/02 03:25:30;;;;;;;;;45.33;39.33;;;;;7.24;100.00;101607.50;6232849;22;44777;-84
2022/12/02 03:27:56;;;;;;;;;43.00;35.33;;;;;7.24;100.00;101599.56;6234009;22;44776;-86
2022/12/02 03:33:44;;;;;;;;;38.67;31.00;;;;;7.30;100.00;101610.41;6261683;22;45240;-85
2022/12/02 03:36:11;;;;;;;;;45.00;39.33;;;;;7.25;100.00;101593.47;6260705;22;45282;-83
2022/12/02 03:38:37;;;;;;;;;48.67;39.67;;;;;7.29;100.00;101591.81;6259186;22;45253;-84
2022/12/02 03:41:04;;;;;;;;;38.33;37.33;;;;;7.27;100.00;101610.31;6259413;22;45323;-84
2022/12/02 03:43:31;;;;;;;;;46.00;32.00;;;;;7.23;100.00;101589.84;6261033;22;44691;-84
2022/12/02 03:45:59;;;;;;;;;31.33;31.33;;;;;7.21;100.00;101581.84;6259898;22;45343;-84
2022/12/02 03:48:25;;;;;;;;;49.33;41.00;;;;;7.24;100.00;101577.50;6233538;22;44761;-85
2022/12/02 03:50:52;;;;;;;;;47.33;39.33;;;;;7.20;100.00;101568.53;6233276;22;46324;-84
2022/12/02 03:53:20;;;;;;;;;41.67;33.00;;;;;7.30;100.00;101578.66;6232710;22;45243;-85
2022/12/02 03:55:47;;;;;;;;;41.33;38.33;;;;;7.26;100.00;101578.47;6258740;22;44699;-83
2022/12/02 03:58:12;;;;;;;;;42.33;38.00;;;;;7.22;100.00;101569.50;6256850;22;45260;-83
2022/12/02 04:00:38;;;;;;;;;31.67;29.33;;;;;7.30;100.00;101583.94;6257784;22;45279;-83
2022/12/02 04:03:04;;;;;;;;;52.00;42.33;;;;;7.27;100.00;101569.69;6259451;22;45589;-83
2022/12/02 04:05:30;;;;;;;;;38.00;34.33;;;;;7.26;100.00;101576.72;6233230;22;45192;-84
2022/12/02 04:11:17;;;;;;;;;43.67;40.00;;;;;7.25;100.00;101564.34;6258854;22;45110;-85
2022/12/02 04:13:43;;;;;;;;;47.00;41.00;;;;;7.18;100.00;101557.88;6230505;22;45114;-84
2022/12/02 04:16:08;;;;;;;;;43.33;33.00;;;;;7.28;100.00;101564.47;6257266;22;45300;-85
2022/12/02 04:18:34;;;;;;;;;45.33;35.33;;;;;7.33;100.00;101568.22;6229457;22;45630;-83
2022/12/02 04:21:01;;;;;;;;;33.00;27.67;;;;;7.35;100.00;101560.31;6228585;22;47359;-83
2022/12/02 04:23:26;;;;;;;;;37.00;34.67;;;;;7.34;100.00;101554.13;6267398;22;45521;-84
2022/12/02 04:25:52;;;;;;;;;48.33;40.00;;;;;7.29;100.00;101542.47;6254442;22;45270;-84
2022/12/02 04:28:21;;;;;;;;;40.33;37.00;;;;;7.16;100.00;101522.53;6229442;22;45819;-84
2022/12/02 04:30:46;;;;;;;;;40.67;36.33;;;;;7.30;100.00;101541.63;6229924;22;45532;-85
2022/12/02 04:33:12;;;;;;;;;49.33;41.00;;;;;7.16;100.00;101519.88;6231342;22;45235;-85
2022/12/02 04:35:37;;;;;;;;;42.67;37.00;;;;;7.31;100.00;101555.75;6230973;22;45307;-85
2022/12/02 04:38:06;;;;;;;;;48.00;40.00;;;;;7.30;100.00;101557.50;6258116;22;45520;-85
2022/12/02 04:40:32;;;;;;;;;41.33;37.00;;;;;7.28;100.00;101548.59;6254505;22;46685;-84
2022/12/02 04:42:58;;;;;;;;;43.67;37.67;;;;;7.31;100.00;101554.03;6258065;22;45315;-85
2022/12/02 04:45:23;;;;;;;;;42.33;38.33;;;;;7.30;100.00;101557.50;6231064;22;44771;-84
2022/12/02 04:47:52;;;;;;;;;46.00;39.33;;;;;7.21;100.00;101541.22;6232391;22;45455;-84
2022/12/02 04:50:17;;;;;;;;;51.67;39.67;;;;;7.33;100.00;101552.34;6230292;22;45351;-85
2022/12/02 04:52:43;;;;;;;;;49.00;40.00;;;;;7.32;100.00;101539.94;6231663;22;45236;-86
2022/12/02 04:55:08;;;;;;;;;48.33;42.67;;;;;7.32;100.00;101539.03;6231697;22;45150;-85
2022/12/02 04:57:41;;;;;;;;;48.67;38.67;;;;;7.33;100.00;101539.09;6258777;22;45346;-84
2022/12/02 05:00:07;;;;;;;;;44.00;38.00;;;;;7.35;100.00;101545.38;6255578;22;47298;-84
2022/12/02 05:02:33;;;;;;;;;50.67;41.00;;;;;7.26;100.00;101529.09;6230611;22;45324;-85
2022/12/02 05:04:59;;;;;;;;;45.67;39.33;;;;;7.34;100.00;101540.00;6232090;22;44776;-84
2022/12/02 05:07:25;;;;;;;;;50.33;40.33;;;;;7.25;100.00;101526.38;6257170;22;45295;-83
2022/12/02 05:09:50;;;;;;;;;45.00;37.67;;;;;7.28;100.00;101532.72;6231648;22;46737;-84
2022/12/02 05:12:19;;;;;;;;;52.67;41.33;;;;;7.27;100.00;101525.63;6231483;22;45500;-85
2022/12/02 05:14:44;;;;;;;;;46.67;35.33;;;;;7.25;100.00;101515.81;6257296;22;45370;-84
2022/12/02 05:17:10;;;;;;;;;50.00;41.00;;;;;7.27;100.00;101528.28;6256298;22;44738;-84
2022/12/02 05:19:36;;;;;;;;;32.33;30.00;;;;;7.29;100.00;101518.66;6256659;22;45381;-85
2022/12/02 05:22:05;;;;;;;;;45.33;36.67;;;;;7.26;100.00;101507.94;6232313;22;45302;-85
2022/12/02 05:24:30;;;;;;;;;50.33;41.00;;;;;7.22;100.00;101511.31;6258407;22;45262;-85
2022/12/02 05:26:56;;;;;;;;;52.00;40.33;;;;;7.25;100.00;101511.44;6258530;22;45477;-85
2022/12/02 05:29:22;;;;;;;;;48.67;40.67;;;;;7.19;100.00;101516.47;6257717;22;46253;-85
2022/12/02 05:31:50;;;;;;;;;50.00;40.00;;;;;7.16;100.00;101505.78;6231002;22;45431;-85
2022/12/02 05:34:16;;;;;;;;;41.33;31.33;;;;;7.19;100.00;101511.16;6257518;22;44856;-85
2022/12/02 05:36:41;;;;;;;;;54.00;41.33;;;;;7.18;100.00;101509.38;6257471;22;45161;-84
2022/12/02 05:39:12;;;;;;;;;45.67;39.00;;;;;7.12;100.00;101490.63;6230584;22;47521;-86
2022/12/02 05:41:38;;;;;;;;;48.33;39.33;;;;;7.05;100.00;101488.56;6255712;22;45350;-85
2022/12/02 05:44:24;;;;;;;;;55.00;42.67;;;;;7.04;100.00;101481.47;6227667;22;45364;-85
2022/12/02 05:46:50;;;;;;;;;52.67;42.67;;;;;7.18;100.00;101498.78;6256008;22;45402;-86
2022/12/02 05:52:38;;;;;;;;;48.00;39.33;;;;;7.19;100.00;101505.88;6257640;22;45257;-84
2022/12/02 05:55:17;;;;;;;;;36.33;28.00;;;;;7.12;100.00;101486.22;6258708;22;45444;-84
2022/12/02 05:57:48;;;;;;;;;59.00;45.00;;;;;7.09;100.00;101475.53;6257850;22;45295;-84
2022/12/02 06:00:20;;;;;;;;;44.33;37.33;;;;;7.27;100.00;101485.94;6230781;22;47151;-85
2022/12/02 06:02:57;;;;;;;;;45.00;37.67;;;;;7.35;100.00;101492.44;6258165;22;45500;-84
2022/12/02 06:05:37;;;;;;;;;51.33;41.33;;;;;7.38;100.00;101495.19;6258185;22;44787;-84
2022/12/02 06:08:21;;;;;;;;;39.67;33.00;;;;;7.39;100.00;101483.78;6231352;22;45198;-84
2022/12/02 06:10:51;;;;;;;;;53.00;43.00;;;;;7.39;100.00;101473.19;6230959;22;47028;-85
2022/12/02 06:13:25;;;;;;;;;47.00;37.67;;;;;7.35;100.00;101476.56;6231327;22;45362;-85
2022/12/02 06:15:52;;;;;;;;;53.33;41.00;;;;;7.35;100.00;101480.94;6229906;22;44786;-86
2022/12/02 06:18:24;;;;;;;;;49.67;39.67;;;;;7.35;100.00;101481.84;6257873;22;44879;-85
2022/12/02 06:20:54;;;;;;;;;50.33;41.00;;;;;7.33;100.00;101487.91;6231196;22;47867;-83
2022/12/02 06:23:20;;;;;;;;;45.33;39.00;;;;;7.27;100.00;101479.72;6255901;22;45362;-84
2022/12/02 06:25:50;;;;;;;;;39.33;35.67;;;;;7.29;100.00;101485.97;6228641;22;45237;-84
2022/12/02 06:28:33;;;;;;;;;54.67;43.00;;;;;7.20;100.00;101474.19;6228886;22;44825;-85
2022/12/02 06:31:11;;;;;;;;;43.67;35.67;;;;;7.26;100.00;101481.47;6230769;22;47940;-84
2022/12/02 06:33:41;;;;;;;;;47.00;39.00;;;;;7.17;100.00;101467.88;6231805;22;45315;-84
2022/12/02 06:36:14;;;;;;;;;56.67;44.67;;;;;7.15;100.00;101461.63;6260186;22;45177;-84
2022/12/02 06:38:48;;;;;;;;;53.00;43.33;;;;;7.30;100.00;101470.19;6257141;22;45815;-84
2022/12/02 06:41:26;;;;;;;;;56.00;43.67;;;;;7.33;100.00;101477.31;6231880;22;45079;-84
2022/12/02 06:47:31;;;;;;;;;45.33;41.00;;;;;7.36;100.00;101472.16;6257823;22;45661;-85
2022/12/02 06:50:10;;;;;;;;;51.67;43.00;;;;;7.32;100.00;101460.56;6257812;22;45364;-85
2022/12/02 06:52:41;;;;;;;;;51.00;41.33;;;;;7.29;100.00;101460.44;6258958;22;45063;-84
2022/12/02 06:59:01;;;;;;;;;19.00;10.33;;;;;7.23;100.00;101470.78;6257275;22;45338;-84
2022/12/02 07:01:37;;;;;;;;;52.67;41.00;;;;;7.18;100.00;101472.34;6244698;22;44826;-84
2022/12/02 07:04:10;;;;;;;;;51.00;41.33;;;;;7.21;100.00;101467.16;6230509;22;47914;-84
2022/12/02 07:06:40;;;;;;;;;48.00;39.67;;;;;7.25;100.00;101470.84;6230767;22;45443;-85
2022/12/02 07:09:54;;;;;;;;;52.33;41.00;;;;;7.27;100.00;101477.09;6258112;22;45404;-84
2022/12/02 07:12:23;;;;;;;;;55.67;41.00;;;;;7.24;100.00;101471.69;6136024;23;45372;-84
2022/12/02 07:14:54;;;;;;;;;52.67;41.33;;;;;7.21;100.00;101473.38;6112286;23;48063;-85
2022/12/02 07:17:36;;;;;;;;;54.33;41.33;;;;;7.19;100.00;101479.41;6137721;23;44840;-85
2022/12/02 07:20:19;;;;;;;;;37.00;35.67;;;;;7.18;100.00;101475.00;6140400;23;45470;-85
2022/12/02 07:22:48;;;;;;;;;56.33;43.33;;;;;7.22;100.00;101472.50;6140283;22;45482;-84
2022/12/02 07:25:19;;;;;;;;;53.00;40.67;;;;;7.25;100.00;101471.75;6112627;23;46917;-84
2022/12/02 07:28:00;;;;;;;;;50.67;44.00;;;;;7.24;100.00;101480.53;6111972;23;45298;-84
2022/12/02 07:30:31;;;;;;;;;60.33;46.33;;;;;7.27;100.00;101482.38;6159511;23;45254;-84
2022/12/02 07:32:58;;;;;;;;;52.00;41.67;;;;;7.26;100.00;101476.19;6109037;23;44926;-85
2022/12/02 07:35:27;;;;;;;;;51.00;41.33;;;;;7.05;100.00;101422.44;6134875;23;45491;-84
2022/12/02 07:40:42;;;;;;;;;51.00;39.67;;;;;6.91;100.00;101414.88;6246362;22;45514;-83
2022/12/02 07:43:12;;;;;;;;;57.67;47.33;;;;;7.08;100.00;101451.66;6231329;22;45377;-84
2022/12/02 07:45:39;;;;;;;;;60.33;49.00;;;;;7.19;100.00;101474.13;6232422;22;45239;-84
2022/12/02 07:48:15;;;;;;;;;40.67;37.33;;;;;6.97;100.00;101440.66;6234111;22;45240;-84
2022/12/02 07:50:41;;;;;;;;;46.67;40.00;;;;;7.07;100.00;101455.13;6259627;22;45504;-84
2022/12/02 07:53:07;;;;;;;;;63.00;46.67;;;;;7.10;100.00;101471.13;6233226;22;44841;-85
2022/12/02 07:55:42;;;;;;;;;64.00;49.67;;;;;7.19;100.00;101477.69;6258986;22;45875;-84
2022/12/02 07:58:08;;;;;;;;;60.00;46.33;;;;;7.07;100.00;101449.84;6231511;22;45448;-84
2022/12/02 08:00:34;;;;;;;;;60.75;50.00;;;;;7.16;100.00;101472.28;6230911;22;44812;-86
2022/12/02 08:03:01;;;;;;;;;55.00;44.00;;;;;7.14;100.00;101467.78;6229124;22;45394;-85
2022/12/02 08:05:28;;;;;;;;;58.25;45.00;;;;;7.07;100.00;101465.72;6260105;22;46787;-86
2022/12/02 08:07:54;;;;;;;;;59.00;47.00;;;;;7.16;100.00;101469.63;6261394;22;44654;-85
2022/12/02 08:10:21;;;;;;;;;61.00;48.00;;;;;7.14;100.00;101475.72;6261483;22;45220;-84
2022/12/02 08:12:47;;;;;;;;;53.00;43.00;;;;;7.09;100.00;101474.59;6234739;22;45493;-85
2022/12/02 08:15:26;;;;;;;;;58.67;44.00;;;;;7.03;100.00;101462.06;6241929;22;45876;-85
2022/12/02 08:17:52;;;;;;;;;57.50;43.75;;;;;7.10;100.00;101477.31;6241274;22;45205;-84
2022/12/02 08:20:18;;;;;;;;;42.33;37.00;;;;;7.12;100.00;101466.81;6264470;22;44649;-86
2022/12/02 08:22:49;;;;;;;;;54.00;44.00;;;;;7.21;100.00;101475.09;6262522;22;45187;-82
2022/12/02 08:25:21;;;;;;;;;57.67;48.00;;;;;7.24;100.00;101480.53;6263602;22;46775;-82
2022/12/02 08:33:05;;;;;;;;;47.67;39.33;;;;;6.88;100.00;101435.88;6179371;22;46617;-86
2022/12/02 08:35:38;;;;;;;;;49.00;44.67;;;;;7.12;100.00;101478.28;6290617;22;45132;-84
2022/12/02 08:40:52;;;;;;;;;57.00;44.00;;;;;7.07;100.00;101464.00;6294006;22;44847;-82
2022/12/02 08:43:28;;;;;;;;;57.33;46.33;;;;;7.21;100.00;101483.03;6267587;22;45315;-82
2022/12/02 08:45:54;;;;;;;;;61.67;45.33;;;;;7.19;100.00;101476.78;6268429;22;46931;-83
2022/12/02 08:48:33;;;;;;;;;65.00;51.33;;;;;7.20;100.00;101471.56;6298553;22;45310;-85
2022/12/02 08:51:05;;;;;;;;;66.00;47.33;;;;;7.12;100.00;101469.47;6269994;22;45440;-84
2022/12/02 08:53:30;;;;;;;;;62.00;47.00;;;;;7.16;100.00;101477.56;6269742;22;45277;-86
2022/12/02 08:56:05;;;;;;;;;60.67;49.00;;;;;7.21;100.00;101473.38;6268863;22;45567;-84
2022/12/02 08:58:31;;;;;;;;;57.00;42.67;;;;;7.17;100.00;101476.75;6297667;22;45550;-85
2022/12/02 09:00:57;;;;;;;;;61.33;48.00;;;;;7.23;100.00;101476.09;6271967;22;44707;-85
2022/12/02 09:03:29;;;;;;;;;61.00;48.00;;;;;7.28;100.00;101458.63;6296212;22;45496;-86
2022/12/02 09:05:59;;;;;;;;;57.67;48.00;;;;;7.25;100.00;101453.25;6297511;22;45290;-86
2022/12/02 09:08:24;;;;;;;;;60.33;47.67;;;;;7.19;100.00;101468.84;6268746;22;45364;-84
2022/12/02 09:11:14;;;;;;;;;65.00;52.00;;;;;7.15;100.00;101474.84;6298478;22;45143;-85
2022/12/02 09:13:56;;;;;;;;;67.00;50.33;;;;;7.10;100.00;101457.91;6299392;22;45387;-86
2022/12/02 09:16:36;;;;;;;;;62.25;48.25;;;;;7.06;100.00;101463.94;6271694;22;45545;-86
2022/12/02 09:19:03;;;;;;;;;59.00;48.00;;;;;6.99;100.00;101465.44;6234445;22;45477;-85
2022/12/02 09:45:42;;;;;;;;;67.67;52.33;;;;;7.18;100.00;101460.00;6306030;22;44879;-84
2022/12/02 09:48:32;;;;;;;;;64.00;51.00;;;;;7.18;100.00;101475.00;6301708;22;46569;-83
2022/12/02 10:01:36;;;;;;;;;68.00;52.00;;;;;7.21;100.00;101406.31;6304690;22;44852;-85
2022/12/02 10:07:19;;;;;;;;;61.00;48.33;;;;;7.34;100.00;101394.47;6184613;23;44925;-85
2022/12/02 10:09:54;;;;;;;;;57.67;46.00;;;;;7.46;100.00;101418.75;6276990;22;45461;-84
2022/12/02 10:17:37;;;;;;;;;61.00;43.67;;;;;7.48;100.00;101426.75;6323353;22;45278;-83
2022/12/02 10:20:04;;;;;;;;;60.67;49.33;;;;;7.44;100.00;101416.91;6301427;22;45158;-85
2022/12/02 10:22:30;;;;;;;;;62.00;51.75;;;;;7.48;100.00;101430.28;6303146;22;47760;-84
2022/12/02 10:24:57;;;;;;;;;64.67;50.67;;;;;7.37;100.00;101411.38;6301320;22;45013;-83
2022/12/02 10:27:32;;;;;;;;;64.33;51.33;;;;;7.30;100.00;101401.38;6330519;22;45464;-84
2022/12/02 10:30:18;;;;;;;;;55.75;45.00;;;;;7.39;100.00;101420.28;6329505;22;44981;-84
2022/12/02 10:33:35;;;;;;;;;;;;;;;;;;;;;
2022/12/02 10:36:17;;;;;;;;;61.33;48.33;;;;;7.28;100.00;101397.78;6325269;22;72211;-84
2022/12/02 10:38:48;;;;;;;;;62.00;50.75;;;;;7.36;100.00;101406.91;6301176;22;45700;-84
2022/12/02 10:44:30;;;;;;;;;66.00;51.67;;;;;7.22;100.00;101385.22;6150540;23;44992;-84
2022/12/02 10:47:28;;;;;;;;;65.75;52.25;;;;;7.50;100.00;101395.94;6146062;23;45303;-82
2022/12/02 10:50:45;;;;;;;;;;;;;;;;;;;;;
2022/12/02 10:53:25;;;;;;;;;69.50;50.75;;;;;7.63;100.00;101387.59;6074935;23;44844;-84
2022/12/02 10:56:50;;;;;;;;;;;;;;;;;;;;;
2022/12/02 10:59:30;;;;;;;;;61.00;49.33;;;;;7.46;100.00;101335.81;6026679;23;73157;-86
2022/12/02 11:02:46;;;;;;;;;64.33;51.67;;;;;7.74;100.00;101386.25;6116518;23;44790;-86
2022/12/02 11:08:48;;;;;;;;;61.33;41.67;;;;;7.58;100.00;101363.63;6236905;22;46472;-87
2022/12/02 11:11:56;;;;;;;;;;;;;;;;;;;;;
2022/12/02 11:15:22;;;;;;;;;69.25;52.50;;;;;7.36;100.00;101319.59;6195108;22;68353;-86
2022/12/02 11:21:51;;;;;;;;;70.00;54.25;;;;;7.63;100.00;101358.47;6140826;23;46224;-85
2022/12/02 11:24:30;;;;;;;;;62.00;49.00;;;;;7.68;100.00;101364.84;6140777;23;44788;-85
2022/12/02 11:27:07;;;;;;;;;64.25;52.25;;;;;7.57;100.00;101338.00;6200140;23;44790;-84
2022/12/02 11:31:02;;;;;;;;;;;;;;;;;;;;;
2022/12/02 11:34:01;;;;;;;;;67.67;52.67;;;;;7.64;100.00;101347.06;6113494;23;45024;-85
2022/12/02 11:36:38;;;;;;;;;67.67;50.00;;;;;7.50;100.00;101321.84;6087554;23;45432;-85
2022/12/02 11:39:33;;;;;;;;;48.33;41.67;;;;;7.60;100.00;101334.56;6111968;23;44920;-85
2022/12/02 11:42:02;;;;;;;;;61.33;49.00;;;;;7.56;100.00;101337.94;6074273;23;44912;-86
2022/12/02 11:45:07;;;;;;;;;61.00;49.00;;;;;7.27;100.00;101287.53;6110732;23;45213;-84
2022/12/02 11:47:53;;;;;;;;;69.00;54.67;;;;;7.19;100.00;101296.88;6026352;23;45215;-85
2022/12/02 11:50:47;;;;;;;;;68.67;49.33;;;;;7.40;100.00;101332.09;6025681;23;44673;-86
2022/12/02 11:53:28;;;;;;;;;69.00;54.67;;;;;7.29;100.00;101320.22;6002874;23;45211;-86
2022/12/02 11:55:59;;;;;;;;;70.25;54.50;;;;;7.33;100.00;101323.84;6024529;23;45341;-85
2022/12/02 12:02:18;;;;;;;;;;;;;;;;;;;;;
2022/12/02 12:05:15;;;;;;;;;68.33;51.00;;;;;7.13;100.00;101309.91;5967917;23;65170;-86
2022/12/02 12:08:00;;;;;;;;;66.25;53.25;;;;;7.12;100.00;101319.59;6083875;23;46678;-86
2022/12/02 12:10:39;;;;;;;;;70.75;53.25;;;;;7.06;100.00;101305.22;6086614;23;45782;-87
2022/12/02 12:13:26;;;;;;;;;64.50;50.50;;;;;7.05;100.00;101304.34;6146091;23;45547;-86
2022/12/02 12:27:12;;;;;;;;;64.50;52.25;;;;;6.86;100.00;101283.31;6116029;23;44882;-87
2022/12/02 12:41:27;;;;;;;;;65.25;51.50;;;;;6.58;100.00;101269.06;6174331;23;44629;-87
2022/12/02 12:54:52;;;;;;;;;69.25;54.50;;;;;6.35;100.00;101223.25;6116418;23;44781;-87
2022/12/02 12:57:21;;;;;;;;;66.50;52.25;;;;;6.55;100.00;101246.06;6113609;23;47047;-87
2022/12/02 12:59:58;;;;;;;;;55.25;47.25;;;;;6.57;100.00;101217.06;6199161;22;45444;-86
2022/12/02 13:02:53;;;;;;;;;63.00;51.00;;;;;6.75;100.00;101216.84;6178944;23;45288;-86
2022/12/02 13:05:31;;;;;;;;;66.25;52.75;;;;;6.80;100.00;101215.25;6250216;22;44763;-84
2022/12/02 13:08:06;;;;;;;;;65.00;51.50;;;;;6.92;100.00;101221.00;6300057;22;48219;-85
2022/12/02 13:10:51;;;;;;;;;60.75;47.50;;;;;6.86;100.00;101194.31;6326822;22;44718;-85
2022/12/02 13:13:18;;;;;;;;;64.50;49.25;;;;;6.98;100.00;101210.63;6299572;22;45346;-84
2022/12/02 13:15:44;;;;;;;;;69.75;52.00;;;;;6.92;100.00;101199.84;6298160;22;45257;-87
2022/12/02 13:22:08;;;;;;;;;62.25;45.00;;;;;7.05;100.00;101216.16;6325813;22;45146;-85
2022/12/02 13:24:34;;;;;;;;;70.25;50.00;;;;;7.04;100.00;101212.59;6300683;22;44785;-87
2022/12/02 13:27:31;;;;;;;;;62.33;48.00;;;;;7.05;100.00;101201.19;6297118;22;45369;-87
2022/12/02 13:30:31;;;;;;;;;60.00;47.00;;;;;7.07;100.00;101209.16;6295087;22;46988;-85
2022/12/02 13:32:58;;;;;;;;;62.33;51.33;;;;;7.16;100.00;101209.50;6323378;22;45455;-84
2022/12/02 13:35:42;;;;;;;;;62.00;51.00;;;;;7.09;100.00;101186.31;6323513;22;45413;-87
2022/12/02 13:38:58;;;;;;;;;67.00;48.00;;;;;7.08;100.00;101173.94;6324402;22;45034;-86
2022/12/02 13:41:43;;;;;;;;;63.67;46.33;;;;;7.26;100.00;101201.03;6199473;23;46365;-87
2022/12/02 13:54:25;;;;;;;;;60.00;48.00;;;;;6.98;100.00;101184.19;6195922;23;45441;-84
2022/12/02 13:57:16;;;;;;;;;65.00;49.67;;;;;6.96;100.00;101179.69;6171970;23;45413;-86
2022/12/02 14:00:03;;;;;;;;;56.00;40.25;;;;;7.05;100.00;101195.00;6297071;22;45281;-84
2022/12/02 14:02:42;;;;;;;;;54.67;46.67;;;;;6.94;100.00;101176.09;6295824;22;44990;-84
2022/12/02 14:05:22;;;;;;;;;57.00;46.00;;;;;6.95;100.00;101165.59;6229569;22;45344;-84